createdAt,value
2019-04-20T00:00:09.159Z,9.23
2019-04-20T00:02:35.769Z,6.87
2019-04-20T00:05:03.404Z,7.62
2019-04-20T00:07:34.015Z,8.70
2019-04-20T00:10:07.619Z,8.95
2019-04-20T00:12:37.361Z,7.70
2019-04-20T00:14:54.527Z,7.65
2019-04-20T00:17:20.510Z,8.50
2019-04-20T00:19:50.623Z,7.30
2019-04-20T00:22:23.312Z,10.10
2019-04-20T00:25:00.838Z,12.10
2019-04-20T00:27:44.288Z,8.18
2019-04-20T00:30:06.824Z,8.03
2019-04-20T00:32:34.305Z,8.40
2019-04-20T00:34:48.871Z,7.22
2019-04-20T00:37:15.154Z,8.90
2019-04-20T00:39:42.642Z,9.18
2019-04-20T00:42:11.655Z,8.83
2019-04-20T00:44:39.574Z,10.53
2019-04-20T00:47:19.179Z,11.57
2019-04-20T00:49:45.428Z,11.48
2019-04-20T00:54:28.874Z,8.10
2019-04-20T00:57:07.883Z,13.83
2019-04-20T00:59:35.347Z,9.58
2019-04-20T01:02:10.633Z,8.88
2019-04-20T01:04:39.231Z,10.50
2019-04-20T01:07:01.387Z,7.40
2019-04-20T01:09:26.938Z,7.72
2019-04-20T01:11:54.382Z,10.00
2019-04-20T01:14:30.318Z,11.97
2019-04-20T01:16:56.883Z,8.98
2019-04-20T01:19:19.225Z,8.18
2019-04-20T01:21:49.823Z,8.55
2019-04-20T01:24:20.183Z,8.98
2019-04-20T01:26:47.203Z,11.85
2019-04-20T01:29:20.469Z,7.85
2019-04-20T01:31:54.558Z,9.33
2019-04-20T01:34:19.573Z,8.80
2019-04-20T01:36:52.036Z,10.60
2019-04-20T01:39:16.033Z,8.53
2019-04-20T01:41:28.703Z,12.68
2019-04-20T01:43:54.578Z,9.95
2019-04-20T01:46:23.428Z,8.80
2019-04-20T01:48:48.582Z,13.22
2019-04-20T01:51:21.215Z,9.88
2019-04-20T01:54:02.093Z,8.93
2019-04-20T01:56:27.474Z,9.75
2019-04-20T01:58:59.757Z,9.28
2019-04-20T02:01:35.464Z,10.80
2019-04-20T02:04:07.302Z,11.08
2019-04-20T02:06:39.964Z,10.48
2019-04-20T02:09:12.170Z,11.15
2019-04-20T02:11:36.579Z,10.23
2019-04-20T02:14:05.181Z,11.22
2019-04-20T02:16:35.471Z,10.93
2019-04-20T02:19:09.259Z,10.35
2019-04-20T02:21:38.231Z,10.38
2019-04-20T02:23:58.913Z,10.82
2019-04-20T02:26:20.165Z,12.82
2019-04-20T02:29:14.551Z,10.28
2019-04-20T02:31:55.145Z,10.03
2019-04-20T02:34:23.899Z,10.50
2019-04-20T02:37:07.619Z,10.40
2019-04-20T02:44:34.056Z,12.95
2019-04-20T02:51:46.744Z,13.43
2019-04-20T02:56:47.698Z,12.65
2019-04-20T03:01:31.701Z,11.40
2019-04-20T03:03:44.931Z,13.72
2019-04-20T03:06:19.849Z,9.25
2019-04-20T03:08:59.905Z,8.68
2019-04-20T03:11:33.300Z,8.83
2019-04-20T03:13:48.796Z,10.60
2019-04-20T03:16:16.476Z,11.63
2019-04-20T03:18:39.900Z,10.85
2019-04-20T03:21:19.942Z,10.80
2019-04-20T03:23:55.719Z,14.13
2019-04-20T03:26:21.441Z,11.15
2019-04-20T03:28:53.858Z,11.55
2019-04-20T03:32:08.439Z,10.05
2019-04-20T03:34:30.224Z,10.90
2019-04-20T03:36:33.726Z,12.15
2019-04-20T03:38:57.303Z,10.93
2019-04-20T03:41:17.979Z,13.15
2019-04-20T03:43:34.912Z,11.33
2019-04-20T03:46:07.407Z,9.98
2019-04-20T03:48:47.614Z,12.28
2019-04-20T03:51:26.893Z,10.18
2019-04-20T03:54:02.688Z,13.08
2019-04-20T03:56:51.767Z,9.70
2019-04-20T03:59:33.241Z,10.63
2019-04-20T04:05:03.332Z,11.15
2019-04-20T04:07:17.931Z,12.05
2019-04-20T04:09:47.013Z,11.18
2019-04-20T04:12:27.369Z,10.45
2019-04-20T04:14:47.351Z,10.88
2019-04-20T04:17:21.259Z,11.22
2019-04-20T04:19:52.455Z,12.98
2019-04-20T04:22:23.799Z,9.70
2019-04-20T04:24:54.298Z,11.85
2019-04-20T04:27:22.872Z,12.75
2019-04-20T04:29:51.231Z,10.00
2019-04-20T04:32:33.291Z,11.88
2019-04-20T04:34:48.901Z,9.05
2019-04-20T04:37:19.048Z,11.40
2019-04-20T04:39:49.072Z,11.00
2019-04-20T04:42:17.867Z,12.13
2019-04-20T04:44:35.719Z,10.38
2019-04-20T04:46:58.067Z,14.35
2019-04-20T04:49:24.951Z,12.13
2019-04-20T04:51:55.509Z,12.75
2019-04-20T04:54:21.983Z,14.05
2019-04-20T04:56:40.286Z,11.45
2019-04-20T04:59:06.501Z,10.35
2019-04-20T05:01:35.306Z,12.55
2019-04-20T05:04:23.011Z,13.18
2019-04-20T05:06:45.003Z,10.55
2019-04-20T05:09:00.733Z,11.35
2019-04-20T05:11:24.081Z,13.40
2019-04-20T05:13:56.868Z,10.08
2019-04-20T05:16:38.253Z,11.00
2019-04-20T05:19:09.416Z,11.22
2019-04-20T05:21:38.901Z,14.78
2019-04-20T05:24:04.471Z,11.48
2019-04-20T05:26:42.803Z,11.28
2019-04-20T05:29:02.803Z,13.98
2019-04-20T05:31:24.459Z,14.78
2019-04-20T05:34:17.082Z,13.72
2019-04-20T05:36:38.462Z,12.05
2019-04-20T05:39:17.184Z,11.50
2019-04-20T05:41:33.217Z,11.22
2019-04-20T05:44:03.661Z,16.20
2019-04-20T05:46:31.964Z,12.75
2019-04-20T05:48:56.207Z,14.03
2019-04-20T05:51:29.415Z,14.45
2019-04-20T05:53:58.756Z,14.63
2019-04-20T05:56:30.499Z,11.95
2019-04-20T05:58:49.612Z,14.63
2019-04-20T06:01:21.536Z,14.13
2019-04-20T06:03:45.755Z,14.13
2019-04-20T06:06:15.111Z,10.45
2019-04-20T06:08:59.670Z,17.67
2019-04-20T06:11:19.601Z,13.30
2019-04-20T06:13:32.663Z,11.85
2019-04-20T06:16:10.118Z,11.55
2019-04-20T06:18:44.287Z,12.63
2019-04-20T06:21:26.490Z,16.25
2019-04-20T06:23:56.409Z,14.78
2019-04-20T06:26:39.966Z,13.95
2019-04-20T06:28:38.817Z,12.23
2019-04-20T06:31:18.040Z,15.55
2019-04-20T06:36:33.667Z,13.85
2019-04-20T06:39:01.972Z,14.03
2019-04-20T06:41:44.716Z,13.18
2019-04-20T06:44:03.822Z,13.72
2019-04-20T06:46:22.097Z,15.40
2019-04-20T06:48:52.332Z,12.47
2019-04-20T06:51:22.397Z,12.53
2019-04-20T06:53:51.578Z,11.70
2019-04-20T06:56:29.109Z,14.95
2019-04-20T06:59:01.628Z,16.25
2019-04-20T07:01:17.164Z,15.40
2019-04-20T07:11:22.296Z,11.30
2019-04-20T07:13:30.927Z,11.15
2019-04-20T07:16:13.712Z,11.55
2019-04-20T07:18:42.550Z,11.80
2019-04-20T07:21:24.518Z,9.83
2019-04-20T07:23:40.660Z,9.50
2019-04-20T07:26:09.334Z,10.98
2019-04-20T07:28:43.685Z,13.53
2019-04-20T07:31:01.965Z,11.00
2019-04-20T07:33:32.212Z,11.48
2019-04-20T07:35:57.707Z,11.68
2019-04-20T07:40:50.998Z,10.80
2019-04-20T07:43:21.382Z,12.53
2019-04-20T07:45:49.085Z,12.23
2019-04-20T07:48:17.531Z,13.38
2019-04-20T07:50:37.436Z,12.95
2019-04-20T07:53:08.695Z,11.45
2019-04-20T07:58:01.345Z,11.63
2019-04-20T08:00:53.264Z,16.27
2019-04-20T08:03:29.603Z,15.98
2019-04-20T08:05:52.693Z,13.13
2019-04-20T08:08:30.798Z,12.50
2019-04-20T08:10:54.272Z,11.63
2019-04-20T08:13:32.005Z,11.00
2019-04-20T08:15:57.248Z,14.05
2019-04-20T08:18:28.778Z,11.22
2019-04-20T08:20:52.653Z,9.95
2019-04-20T08:23:17.556Z,9.40
2019-04-20T08:25:38.851Z,13.80
2019-04-20T08:27:55.056Z,12.78
2019-04-20T08:30:56.198Z,12.00
2019-04-20T08:33:28.837Z,10.60
2019-04-20T08:36:02.808Z,11.57
2019-04-20T08:38:50.127Z,11.43
2019-04-20T08:40:54.936Z,8.20
2019-04-20T08:43:34.207Z,9.25
2019-04-20T08:45:51.061Z,10.98
2019-04-20T08:48:18.939Z,10.93
2019-04-20T08:50:47.045Z,11.88
2019-04-20T08:55:33.444Z,10.23
2019-04-20T08:57:49.212Z,9.70
2019-04-20T09:00:19.155Z,13.80
2019-04-20T09:02:51.705Z,12.43
2019-04-20T09:05:29.493Z,11.18
2019-04-20T09:07:54.162Z,12.90
2019-04-20T09:12:54.167Z,10.20
2019-04-20T09:15:05.997Z,11.48
2019-04-20T09:17:40.950Z,11.80
2019-04-20T09:20:10.539Z,13.15
2019-04-20T09:22:46.643Z,10.82
2019-04-20T09:25:37.643Z,11.40
2019-04-20T09:27:38.368Z,11.35
2019-04-20T09:30:09.182Z,17.02
2019-04-20T09:32:45.222Z,13.48
2019-04-20T09:35:19.483Z,14.53
2019-04-20T09:37:54.393Z,11.53
2019-04-20T09:40:29.289Z,11.10
2019-04-20T09:42:36.290Z,11.53
2019-04-20T09:45:05.841Z,11.68
2019-04-20T09:47:37.058Z,12.47
2019-04-20T09:50:18.730Z,10.55
2019-04-20T09:52:48.011Z,11.78
2019-04-20T09:55:10.794Z,11.48
2019-04-20T09:57:42.511Z,11.80
2019-04-20T10:00:08.683Z,11.68
2019-04-20T10:02:23.998Z,14.95
2019-04-20T10:04:47.220Z,10.38
2019-04-20T10:07:18.014Z,11.03
2019-04-20T10:09:44.834Z,10.03
2019-04-20T10:12:11.149Z,11.97
2019-04-20T10:14:38.497Z,27.15
2019-04-20T10:17:05.723Z,9.70
2019-04-20T10:19:34.718Z,12.78
2019-04-20T10:22:00.398Z,9.13
2019-04-20T10:24:26.539Z,12.43
2019-04-20T10:26:52.987Z,9.08
2019-04-20T10:29:19.592Z,11.68
2019-04-20T10:31:50.507Z,8.98
2019-04-20T10:34:15.809Z,8.90
2019-04-20T10:36:47.913Z,11.33
2019-04-20T10:39:15.971Z,8.78
2019-04-20T10:41:49.118Z,10.68
2019-04-20T10:44:11.043Z,13.75
2019-04-20T10:46:38.844Z,9.15
2019-04-20T10:49:06.438Z,9.90
2019-04-20T10:51:33.745Z,29.87
2019-04-20T10:54:00.459Z,9.48
2019-04-20T10:56:27.512Z,10.88
2019-04-20T10:58:54.035Z,11.18
2019-04-20T11:01:20.265Z,10.95
2019-04-20T11:03:46.879Z,9.13
2019-04-20T11:06:14.405Z,9.13
2019-04-20T11:08:40.585Z,8.85
2019-04-20T11:11:12.710Z,8.10
2019-04-20T11:13:35.279Z,9.38
2019-04-20T11:16:02.200Z,23.83
2019-04-20T11:18:31.442Z,9.75
2019-04-20T11:20:59.344Z,8.40
2019-04-20T11:23:26.622Z,8.53
2019-04-20T11:25:53.307Z,17.05
2019-04-20T11:28:19.865Z,8.03
2019-04-20T11:30:46.188Z,8.10
2019-04-20T11:33:12.312Z,7.90
2019-04-20T11:35:41.653Z,7.10
2019-04-20T11:38:07.392Z,6.10
2019-04-20T11:40:35.010Z,9.93
2019-04-20T11:43:01.687Z,9.75
2019-04-20T11:45:28.811Z,6.20
2019-04-20T11:47:55.762Z,6.62
2019-04-20T11:50:22.027Z,6.03
2019-04-20T11:52:49.941Z,7.00
2019-04-20T11:55:16.023Z,9.08
2019-04-20T11:57:43.101Z,6.72
2019-04-20T12:00:11.182Z,10.93
2019-04-20T12:02:42.513Z,5.78
2019-04-20T12:05:23.888Z,6.83
2019-04-20T12:07:38.334Z,9.13
2019-04-20T12:10:10.098Z,7.22
2019-04-20T12:12:41.556Z,7.00
2019-04-20T12:15:01.054Z,9.40
2019-04-20T12:17:27.494Z,6.70
2019-04-20T12:19:53.719Z,7.30
2019-04-20T12:22:21.406Z,5.87
2019-04-20T12:24:47.921Z,7.50
2019-04-20T12:27:14.688Z,9.18
2019-04-20T12:29:41.103Z,8.33
2019-04-20T12:32:07.591Z,7.87
2019-04-20T12:34:35.178Z,7.97
2019-04-20T12:37:01.149Z,6.70
2019-04-20T12:39:28.966Z,7.25
2019-04-20T12:41:58.865Z,6.75
2019-04-20T12:44:23.719Z,7.95
2019-04-20T12:46:49.922Z,7.42
2019-04-20T12:49:17.862Z,7.00
2019-04-20T12:51:50.601Z,6.65
2019-04-20T12:54:11.910Z,8.55
2019-04-20T12:56:38.347Z,8.70
2019-04-20T12:59:05.440Z,6.65
2019-04-20T13:01:31.657Z,7.28
2019-04-20T13:03:57.517Z,7.92
2019-04-20T13:06:23.840Z,6.30
2019-04-20T13:08:53.838Z,6.97
2019-04-20T13:11:43.616Z,7.55
2019-04-20T13:14:28.710Z,6.47
2019-04-20T13:16:55.187Z,6.40
2019-04-20T13:19:23.461Z,7.87
2019-04-20T13:21:49.746Z,7.70
2019-04-20T13:24:16.754Z,6.72
2019-04-20T13:26:42.896Z,6.08
2019-04-20T13:29:08.831Z,7.90
2019-04-20T13:31:35.776Z,7.75
2019-04-20T13:34:01.662Z,7.65
2019-04-20T13:36:28.489Z,7.87
2019-04-20T13:38:54.724Z,8.58
2019-04-20T13:41:21.926Z,7.17
2019-04-20T13:43:48.204Z,6.28
2019-04-20T13:46:15.112Z,7.35
2019-04-20T13:48:42.721Z,10.55
2019-04-20T13:51:09.864Z,6.42
2019-04-20T13:53:37.174Z,7.87
2019-04-20T13:56:03.695Z,5.65
2019-04-20T13:58:40.454Z,5.75
2019-04-20T14:01:23.507Z,8.65
2019-04-20T14:04:06.338Z,6.87
2019-04-20T14:06:33.132Z,6.47
2019-04-20T14:08:59.294Z,7.58
2019-04-20T14:11:25.434Z,6.22
2019-04-20T14:13:57.989Z,7.67
2019-04-20T14:16:19.273Z,9.68
2019-04-20T14:18:45.150Z,6.87
2019-04-20T14:21:12.101Z,5.78
2019-04-20T14:23:39.066Z,6.95
2019-04-20T14:26:05.045Z,9.70
2019-04-20T14:28:31.258Z,7.83
2019-04-20T14:30:58.193Z,5.75
2019-04-20T14:33:24.296Z,8.35
2019-04-20T14:35:50.653Z,6.45
2019-04-20T14:38:17.646Z,7.70
2019-04-20T14:40:44.213Z,7.30
2019-04-20T14:43:11.052Z,6.30
2019-04-20T14:45:38.492Z,10.20
2019-04-20T14:48:05.787Z,6.75
2019-04-20T14:50:31.844Z,8.73
2019-04-20T14:52:58.191Z,8.38
2019-04-20T14:55:24.193Z,6.50
2019-04-20T14:57:50.116Z,6.33
2019-04-20T15:00:31.956Z,8.73
2019-04-20T15:02:59.661Z,8.30
2019-04-20T15:05:26.278Z,7.40
2019-04-20T15:07:52.440Z,13.25
2019-04-20T15:10:18.731Z,9.60
2019-04-20T15:12:50.872Z,8.18
2019-04-20T15:15:12.654Z,9.43
2019-04-20T15:17:49.308Z,8.43
2019-04-20T15:20:17.385Z,8.58
2019-04-20T15:22:49.637Z,11.95
2019-04-20T15:25:15.835Z,11.95
2019-04-20T15:27:44.750Z,7.83
2019-04-20T15:30:09.612Z,10.53
2019-04-20T15:32:36.745Z,15.40
2019-04-20T15:35:04.838Z,15.00
2019-04-20T15:37:30.991Z,10.18
2019-04-20T15:39:57.178Z,7.33
2019-04-20T15:42:23.352Z,9.73
2019-04-20T15:44:49.565Z,11.97
2019-04-20T15:47:15.437Z,11.60
2019-04-20T15:49:42.010Z,12.93
2019-04-20T15:52:08.117Z,7.92
2019-04-20T15:54:34.139Z,10.75
2019-04-20T15:57:07.448Z,11.40
2019-04-20T15:59:28.531Z,11.65
2019-04-20T16:01:57.526Z,13.50
2019-04-20T16:04:44.581Z,9.38
2019-04-20T16:07:10.977Z,10.70
2019-04-20T16:09:37.881Z,13.08
2019-04-20T16:12:04.687Z,10.23
2019-04-20T16:14:31.287Z,10.85
2019-04-20T16:16:58.255Z,9.45
2019-04-20T16:19:36.017Z,11.57
2019-04-20T16:21:53.904Z,11.30
2019-04-20T16:24:22.363Z,11.48
2019-04-20T16:26:51.565Z,8.15
2019-04-20T16:29:17.728Z,13.10
2019-04-20T16:31:46.612Z,11.95
2019-04-20T16:34:11.752Z,8.58
2019-04-20T16:36:38.764Z,8.30
2019-04-20T16:39:05.675Z,9.78
2019-04-20T16:41:32.633Z,8.20
2019-04-20T16:43:59.510Z,10.05
2019-04-20T16:46:25.951Z,9.75
2019-04-20T16:48:52.663Z,8.00
2019-04-20T16:51:18.804Z,8.60
2019-04-20T16:53:45.708Z,10.70
2019-04-20T16:56:12.772Z,8.93
2019-04-20T16:58:39.942Z,12.43
2019-04-20T17:01:07.667Z,7.45
2019-04-20T17:03:47.120Z,8.48
2019-04-20T17:06:02.332Z,9.63
2019-04-20T17:08:29.197Z,8.00
2019-04-20T17:10:55.923Z,10.50
2019-04-20T17:13:31.919Z,9.08
2019-04-20T17:15:49.969Z,7.97
2019-04-20T17:18:15.941Z,10.20
2019-04-20T17:20:41.726Z,8.60
2019-04-20T17:23:10.513Z,12.53
2019-04-20T17:25:35.506Z,9.13
2019-04-20T17:28:07.138Z,10.00
2019-04-20T17:30:42.150Z,9.95
2019-04-20T17:33:10.380Z,10.15
2019-04-20T17:35:47.310Z,9.15
2019-04-20T17:38:04.871Z,8.65
2019-04-20T17:40:51.206Z,9.70
2019-04-20T17:43:07.503Z,10.38
2019-04-20T17:45:38.871Z,11.70
2019-04-20T17:48:08.513Z,8.88
2019-04-20T17:50:41.470Z,10.35
2019-04-20T17:53:06.805Z,12.07
2019-04-20T17:55:30.561Z,10.93
2019-04-20T17:57:49.119Z,13.00
2019-04-20T18:00:17.643Z,11.40
2019-04-20T18:03:06.025Z,10.03
2019-04-20T18:05:38.895Z,10.20
2019-04-20T18:08:10.220Z,9.73
2019-04-20T18:10:34.285Z,8.85
2019-04-20T18:12:48.023Z,12.30
2019-04-20T18:15:31.336Z,11.48
2019-04-20T18:18:00.332Z,11.08
2019-04-20T18:20:14.892Z,8.58
2019-04-20T18:22:44.094Z,10.13
2019-04-20T18:25:29.914Z,10.35
2019-04-20T18:27:54.967Z,13.32
2019-04-20T18:30:23.699Z,9.95
2019-04-20T18:32:38.362Z,9.70
2019-04-20T18:35:08.393Z,12.95
2019-04-20T18:37:34.541Z,10.60
2019-04-20T18:40:06.009Z,9.65
2019-04-20T18:42:34.327Z,14.10
2019-04-20T18:45:14.228Z,10.48
2019-04-20T18:47:45.574Z,11.15
2019-04-20T18:50:03.169Z,21.10
2019-04-20T18:52:19.818Z,10.78
2019-04-20T18:54:48.489Z,13.78
2019-04-20T18:57:19.738Z,11.57
2019-04-20T18:59:47.925Z,13.13
2019-04-20T19:02:15.057Z,10.48
2019-04-20T19:04:37.661Z,10.75
2019-04-20T19:07:04.085Z,9.63
2019-04-20T19:09:32.264Z,9.90
2019-04-20T19:12:02.461Z,13.00
2019-04-20T19:14:34.987Z,12.25
2019-04-20T19:17:09.010Z,11.95
2019-04-20T19:19:36.953Z,11.85
2019-04-20T19:21:56.199Z,13.00
2019-04-20T19:24:27.453Z,11.53
2019-04-20T19:26:54.164Z,13.05
2019-04-20T19:29:26.415Z,14.45
2019-04-20T19:32:07.365Z,12.55
2019-04-20T19:34:29.595Z,11.78
2019-04-20T19:36:58.648Z,11.50
2019-04-20T19:39:25.774Z,13.30
2019-04-20T19:41:49.003Z,20.37
2019-04-20T19:44:17.332Z,13.45
2019-04-20T19:46:53.787Z,15.72
2019-04-20T19:49:14.238Z,13.05
2019-04-20T19:51:55.592Z,15.40
2019-04-20T19:54:20.842Z,14.65
2019-04-20T19:56:44.213Z,14.30
2019-04-20T19:59:07.153Z,14.95
2019-04-20T20:04:15.292Z,14.93
2019-04-20T20:06:47.986Z,17.70
2019-04-20T20:09:12.655Z,16.52
2019-04-20T20:11:41.078Z,21.25
2019-04-20T20:14:08.211Z,15.08
2019-04-20T20:16:54.821Z,16.77
2019-04-20T20:19:08.463Z,19.62
2019-04-20T20:21:46.521Z,19.48
2019-04-20T20:23:56.775Z,17.50
2019-04-20T20:26:31.302Z,18.00
2019-04-20T20:29:03.932Z,18.65
2019-04-20T20:31:28.301Z,17.48
2019-04-20T20:33:58.138Z,16.40
2019-04-20T20:36:19.262Z,19.42
2019-04-20T20:38:45.732Z,17.32
2019-04-20T20:41:18.385Z,14.95
2019-04-20T20:43:51.054Z,16.05
2019-04-20T20:46:16.238Z,19.30
2019-04-20T20:49:00.582Z,22.15
2019-04-20T20:51:17.743Z,17.15
2019-04-20T20:53:42.822Z,18.48
2019-04-20T20:56:07.918Z,19.40
2019-04-20T20:58:36.213Z,19.12
2019-04-20T21:00:59.701Z,17.90
2019-04-20T21:03:29.246Z,20.40
2019-04-20T21:05:49.603Z,20.27
2019-04-20T21:08:15.931Z,20.68
2019-04-20T21:10:42.913Z,17.73
2019-04-20T21:13:10.929Z,18.10
2019-04-20T21:15:38.354Z,15.10
2019-04-20T21:18:29.023Z,19.12
2019-04-20T21:20:47.910Z,15.15
2019-04-20T21:23:15.247Z,14.38
2019-04-20T21:25:40.868Z,19.42
2019-04-20T21:28:04.712Z,15.80
2019-04-20T21:30:37.975Z,19.25
2019-04-20T21:33:03.398Z,18.27
2019-04-20T21:35:32.447Z,15.28
2019-04-20T21:38:00.419Z,15.35
2019-04-20T21:40:31.777Z,18.40
2019-04-20T21:42:57.259Z,15.68
2019-04-20T21:45:24.792Z,17.73
2019-04-20T21:47:46.996Z,21.02
2019-04-20T21:50:30.030Z,19.32
2019-04-20T21:52:46.749Z,18.70
2019-04-20T21:55:09.928Z,21.68
2019-04-20T21:57:39.728Z,18.40
2019-04-20T22:00:10.323Z,18.12
2019-04-20T22:02:41.159Z,18.30
2019-04-20T22:05:01.267Z,20.35
2019-04-20T22:07:28.325Z,18.27
2019-04-20T22:09:56.407Z,18.17
2019-04-20T22:12:23.591Z,18.60
2019-04-20T22:14:59.032Z,16.62
2019-04-20T22:17:23.373Z,19.55
2019-04-20T22:19:58.673Z,18.35
2019-04-20T22:22:30.843Z,18.73
2019-04-20T22:24:56.799Z,19.57
2019-04-20T22:27:15.873Z,19.25
2019-04-20T22:29:38.524Z,17.50
2019-04-20T22:32:11.521Z,18.52
2019-04-20T22:34:35.118Z,16.52
2019-04-20T22:37:02.136Z,19.85
2019-04-20T22:39:36.979Z,18.17
2019-04-20T22:42:03.122Z,19.80
2019-04-20T22:44:28.391Z,20.48
2019-04-20T22:46:54.356Z,19.92
2019-04-20T22:49:36.326Z,18.62
2019-04-20T22:51:58.225Z,22.60
2019-04-20T22:54:34.550Z,17.42
2019-04-20T22:56:57.623Z,20.00
2019-04-20T22:59:20.351Z,23.47
2019-04-20T23:01:48.501Z,18.40
2019-04-20T23:04:08.829Z,18.48
2019-04-20T23:06:38.624Z,21.15
2019-04-20T23:09:10.252Z,17.95
2019-04-20T23:11:35.202Z,20.65
2019-04-20T23:14:00.458Z,19.42
2019-04-20T23:16:35.116Z,17.80
2019-04-20T23:18:56.048Z,19.12
2019-04-20T23:21:22.035Z,17.50
2019-04-20T23:23:52.531Z,19.37
2019-04-20T23:26:23.785Z,18.98
2019-04-20T23:28:48.521Z,18.92
2019-04-20T23:31:18.416Z,19.35
2019-04-20T23:33:40.217Z,20.70
2019-04-20T23:36:07.839Z,19.90
2019-04-20T23:38:34.763Z,20.88
2019-04-20T23:41:01.787Z,20.43
2019-04-20T23:43:33.673Z,21.97
2019-04-20T23:46:09.259Z,18.65
2019-04-20T23:48:39.202Z,18.40
2019-04-20T23:51:24.959Z,20.40
2019-04-20T23:53:45.259Z,18.30
2019-04-20T23:55:59.570Z,21.55
2019-04-20T23:58:26.460Z,17.92
